createdAt,value
2022-12-12T00:00:45.639Z,99986.13
2022-12-12T00:03:23.312Z,99991.25
2022-12-12T00:07:23.433Z,99990.94
2022-12-12T00:10:04.184Z,100004.31
2022-12-12T00:13:55.684Z,100000.63
2022-12-12T00:16:18.482Z,99990.50
2022-12-12T00:18:51.298Z,100009.66
2022-12-12T00:21:59.882Z,100006.84
2022-12-12T00:28:12.567Z,100009.94
2022-12-12T00:31:20.431Z,100014.00
2022-12-12T00:35:04.735Z,100007.06
2022-12-12T00:44:22.041Z,100020.00
2022-12-12T01:43:36.403Z,100000.75
2022-12-12T03:17:10.929Z,100027.97
2022-12-12T03:42:37.876Z,100034.34
2022-12-12T03:53:11.036Z,100021.94
2022-12-12T04:12:41.145Z,100024.59
2022-12-12T04:42:33.454Z,100013.69
2022-12-12T04:56:15.227Z,100019.63
2022-12-12T05:07:42.040Z,100028.19
2022-12-12T05:58:07.177Z,100043.28
2022-12-12T06:04:44.890Z,100032.00
2022-12-12T06:11:13.264Z,100035.72
2022-12-12T06:13:40.426Z,100047.44
2022-12-12T06:23:07.084Z,100056.38
2022-12-12T06:25:33.885Z,100060.84
2022-12-12T06:28:00.690Z,100060.00
2022-12-12T06:30:27.462Z,100063.38
2022-12-12T06:32:54.196Z,100060.59
2022-12-12T06:35:20.953Z,100067.69
2022-12-12T06:37:48.671Z,100061.53
2022-12-12T06:40:16.328Z,100064.84
2022-12-12T06:42:47.972Z,100070.16
2022-12-12T06:45:15.707Z,100071.09
2022-12-12T06:47:42.605Z,100075.53
2022-12-12T06:50:09.753Z,100076.34
2022-12-12T06:52:36.700Z,100082.56
2022-12-12T06:55:03.741Z,100085.19
2022-12-12T06:57:30.449Z,100090.34
2022-12-12T06:59:57.071Z,100086.09
2022-12-12T07:02:29.734Z,100083.47
2022-12-12T07:04:57.479Z,100089.41
2022-12-12T07:07:24.432Z,100097.97
2022-12-12T07:09:51.100Z,100100.69
2022-12-12T07:12:17.772Z,100096.41
2022-12-12T07:14:44.509Z,100091.19
2022-12-12T07:17:11.169Z,100099.00
2022-12-12T07:19:37.879Z,100097.97
2022-12-12T07:22:09.804Z,100098.81
2022-12-12T07:24:37.068Z,100107.63
2022-12-12T07:27:04.256Z,100108.50
2022-12-12T07:29:30.930Z,100102.44
2022-12-12T07:31:57.694Z,100100.63
2022-12-12T07:34:24.420Z,100108.41
2022-12-12T07:36:51.206Z,100111.03
2022-12-12T07:39:21.009Z,100116.22
2022-12-12T07:41:48.383Z,100111.91
2022-12-12T07:44:20.196Z,100113.81
2022-12-12T07:46:46.921Z,100121.50
2022-12-12T07:49:13.657Z,100126.72
2022-12-12T07:51:45.590Z,100119.06
2022-12-12T07:54:15.379Z,100116.47
2022-12-12T07:56:42.065Z,100115.44
2022-12-12T07:59:08.947Z,100128.56
2022-12-12T08:33:58.979Z,100143.69
2022-12-12T09:30:25.541Z,100198.72
2022-12-12T09:36:46.132Z,100209.25
2022-12-12T09:43:01.001Z,100214.22
2022-12-12T09:45:42.744Z,100212.56
2022-12-12T09:49:04.430Z,100206.72
2022-12-12T09:52:05.476Z,100213.78
2022-12-12T09:55:02.922Z,100206.09
2022-12-12T09:57:58.924Z,100205.22
2022-12-12T10:00:30.210Z,100204.38
2022-12-12T10:03:23.533Z,100198.31
2022-12-12T10:06:36.025Z,100196.63
2022-12-12T10:09:40.367Z,100213.91
2022-12-12T10:12:22.108Z,100214.13
2022-12-12T10:14:56.300Z,100213.47
2022-12-12T10:17:59.447Z,100216.13
2022-12-12T10:20:40.455Z,100210.81
2022-12-12T10:23:49.696Z,100209.06
2022-12-12T10:26:38.812Z,100213.13
2022-12-12T10:32:56.494Z,100213.94
2022-12-12T10:35:39.847Z,100211.31
2022-12-12T10:38:59.560Z,100202.81
2022-12-12T10:46:24.388Z,100210.38
2022-12-12T10:50:13.376Z,100203.63
2022-12-12T10:53:29.500Z,100207.56
2022-12-12T10:56:27.699Z,100195.50
2022-12-12T10:59:23.495Z,100203.06
2022-12-12T11:02:39.043Z,100193.34
2022-12-12T11:05:22.819Z,100198.19
2022-12-12T11:08:19.695Z,100194.03
2022-12-12T11:11:47.260Z,100198.47
2022-12-12T11:14:23.843Z,100199.84
2022-12-12T11:16:50.744Z,100208.31
2022-12-12T11:19:23.915Z,100195.63
2022-12-12T11:22:07.964Z,100198.06
2022-12-12T11:25:19.104Z,100197.41
2022-12-12T11:27:55.568Z,100201.59
2022-12-12T11:30:45.813Z,100199.56
2022-12-12T11:40:06.956Z,100223.25
2022-12-12T11:42:34.922Z,100224.91
2022-12-12T11:45:19.388Z,100217.75
2022-12-12T11:48:17.782Z,100220.97
2022-12-12T11:51:25.421Z,100215.84
2022-12-12T11:53:58.476Z,100214.22
2022-12-12T11:56:47.176Z,100217.06
2022-12-12T12:03:29.483Z,100217.34
2022-12-12T12:10:24.885Z,100212.63
2022-12-12T12:17:18.080Z,100218.59
2022-12-12T12:20:19.024Z,100217.59
2022-12-12T12:23:18.382Z,100219.41
2022-12-12T12:25:56.927Z,100216.88
2022-12-12T12:28:47.130Z,100211.63
2022-12-12T12:42:15.337Z,100216.69
2022-12-12T12:44:54.508Z,100212.47
2022-12-12T12:47:53.178Z,100209.91
2022-12-12T12:50:42.350Z,100211.59
2022-12-12T12:53:41.622Z,100211.66
2022-12-12T12:56:47.216Z,100216.31
2022-12-12T12:59:46.330Z,100213.50
2022-12-12T13:02:54.242Z,100219.59
2022-12-12T13:06:05.810Z,100218.03
2022-12-12T13:34:57.255Z,100207.03
2022-12-12T13:42:12.352Z,100229.66
2022-12-12T13:46:39.836Z,100216.72
2022-12-12T13:53:15.703Z,100213.97
2022-12-12T13:56:04.500Z,100212.28
2022-12-12T14:03:30.638Z,100232.38
2022-12-12T14:55:52.415Z,100258.69
2022-12-12T15:06:42.722Z,100268.28
2022-12-12T15:09:15.852Z,100279.63
2022-12-12T15:11:42.658Z,100281.16
2022-12-12T15:14:23.294Z,100281.25
2022-12-12T15:17:00.420Z,100283.03
2022-12-12T15:19:36.414Z,100282.84
2022-12-12T15:22:24.541Z,100282.00
2022-12-12T15:24:55.582Z,100284.66
2022-12-12T15:27:33.228Z,100283.94
2022-12-12T15:34:07.355Z,100295.22
2022-12-12T15:40:41.250Z,100275.59
2022-12-12T15:43:14.755Z,100280.69
2022-12-12T15:45:55.956Z,100285.88
2022-12-12T15:48:23.607Z,100280.66
2022-12-12T15:51:03.326Z,100278.88
2022-12-12T15:53:33.697Z,100271.06
2022-12-12T15:56:28.996Z,100276.22
2022-12-12T15:59:15.508Z,100270.00
2022-12-12T16:01:47.352Z,100272.69
2022-12-12T16:04:14.078Z,100287.59
2022-12-12T16:06:42.063Z,100285.97
2022-12-12T16:09:24.755Z,100286.81
2022-12-12T16:11:51.450Z,100285.03
2022-12-12T16:14:40.758Z,100292.03
2022-12-12T16:17:32.874Z,100291.94
2022-12-12T16:31:28.168Z,100295.44
2022-12-12T16:34:15.571Z,100296.34
2022-12-12T16:36:45.223Z,100306.69
2022-12-12T16:39:21.932Z,100305.69
2022-12-12T16:42:04.642Z,100312.50
2022-12-12T16:44:37.747Z,100308.94
2022-12-12T16:47:14.387Z,100307.22
2022-12-12T16:49:41.376Z,100311.69
2022-12-12T16:52:12.041Z,100311.75
2022-12-12T16:54:39.333Z,100317.72
2022-12-12T16:57:38.925Z,100309.97
2022-12-12T17:00:10.747Z,100304.78
2022-12-12T17:03:01.418Z,100311.75
2022-12-12T17:06:00.848Z,100312.63
2022-12-12T17:08:27.872Z,100311.69
2022-12-12T17:11:09.266Z,100304.88
2022-12-12T17:13:41.783Z,100312.75
2022-12-12T17:16:11.515Z,100312.88
2022-12-12T17:18:47.296Z,100306.69
2022-12-12T17:21:14.367Z,100304.06
2022-12-12T17:23:50.716Z,100299.69
2022-12-12T17:26:36.016Z,100308.47
2022-12-12T17:29:18.289Z,100314.47
2022-12-12T17:31:50.971Z,100305.72
2022-12-12T17:34:20.099Z,100316.25
2022-12-12T17:37:07.926Z,100323.09
2022-12-12T17:39:37.740Z,100327.56
2022-12-12T17:42:10.496Z,100331.81
2022-12-12T17:50:49.802Z,100338.84
2022-12-12T17:53:47.157Z,100331.06
2022-12-12T17:56:24.395Z,100327.44
2022-12-12T18:02:16.959Z,100319.50
2022-12-12T18:05:03.055Z,100319.59
2022-12-12T18:07:29.962Z,100309.34
2022-12-12T18:09:59.223Z,100317.06
2022-12-12T18:12:34.391Z,100316.16
2022-12-12T18:15:29.473Z,100328.28
2022-12-12T18:22:05.846Z,100321.59
2022-12-12T18:36:21.155Z,100337.56
2022-12-12T18:38:53.053Z,100329.72
2022-12-12T18:41:19.922Z,100340.13
2022-12-12T18:43:50.735Z,100340.97
2022-12-12T18:46:19.946Z,100327.09
2022-12-12T18:48:47.879Z,100334.09
2022-12-12T18:51:19.281Z,100332.53
2022-12-12T18:53:54.445Z,100326.47
2022-12-12T18:56:35.244Z,100334.28
2022-12-12T18:59:05.038Z,100339.41
2022-12-12T19:01:40.016Z,100348.22
2022-12-12T19:04:14.149Z,100341.53
2022-12-12T19:06:43.361Z,100343.94
2022-12-12T19:09:19.318Z,100331.78
2022-12-12T19:11:49.328Z,100332.75
2022-12-12T19:14:16.877Z,100341.28
2022-12-12T19:16:53.586Z,100347.53
2022-12-12T19:26:53.346Z,100364.34
2022-12-12T19:29:20.974Z,100358.31
2022-12-12T19:32:45.861Z,100367.94
2022-12-12T19:35:40.487Z,100373.19
2022-12-12T19:46:17.477Z,100368.84
2022-12-12T19:49:01.037Z,100364.47
2022-12-12T19:51:36.429Z,100367.16
2022-12-12T19:54:23.372Z,100369.78
2022-12-12T19:57:02.628Z,100362.81
2022-12-12T19:59:29.525Z,100368.75
2022-12-12T20:01:56.887Z,100378.34
2022-12-12T20:04:26.216Z,100363.50
2022-12-12T20:06:53.221Z,100360.94
2022-12-12T20:09:53.451Z,100382.56
2022-12-12T20:12:24.343Z,100381.63
2022-12-12T20:14:53.903Z,100380.63
2022-12-12T20:17:20.830Z,100378.78
2022-12-12T20:20:07.945Z,100381.25
2022-12-12T20:22:40.057Z,100386.44
2022-12-12T20:25:07.549Z,100386.34
2022-12-12T20:27:38.627Z,100384.47
2022-12-12T20:30:20.220Z,100388.88
2022-12-12T20:32:49.636Z,100385.25
2022-12-12T20:35:26.294Z,100392.19
